sensor_id;sensor_type;location;lat;lon;timestamp;temperature;humidity
25346;DHT22;13300;51.032;3.710;2023-12-22T00:01:09;10.10;99.90
25346;DHT22;13300;51.032;3.710;2023-12-22T00:03:35;10.00;99.90
25346;DHT22;13300;51.032;3.710;2023-12-22T00:06:01;9.90;99.90
25346;DHT22;13300;51.032;3.710;2023-12-22T00:08:26;9.90;99.90
25346;DHT22;13300;51.032;3.710;2023-12-22T00:10:52;9.80;99.90
25346;DHT22;13300;51.032;3.710;2023-12-22T00:13:18;9.80;99.90
25346;DHT22;13300;51.032;3.710;2023-12-22T00:15:43;9.80;99.90
25346;DHT22;13300;51.032;3.710;2023-12-22T00:18:10;9.70;99.90
25346;DHT22;13300;51.032;3.710;2023-12-22T00:20:35;9.70;99.90
25346;DHT22;13300;51.032;3.710;2023-12-22T00:23:01;9.70;99.90
25346;DHT22;13300;51.032;3.710;2023-12-22T00:25:27;9.70;99.90
25346;DHT22;13300;51.032;3.710;2023-12-22T00:27:53;9.70;99.90
25346;DHT22;13300;51.032;3.710;2023-12-22T00:30:18;9.80;99.90
25346;DHT22;13300;51.032;3.710;2023-12-22T00:32:44;9.80;99.90
25346;DHT22;13300;51.032;3.710;2023-12-22T00:35:10;9.80;99.90
25346;DHT22;13300;51.032;3.710;2023-12-22T00:37:35;9.80;99.90
25346;DHT22;13300;51.032;3.710;2023-12-22T00:40:01;9.90;99.90
25346;DHT22;13300;51.032;3.710;2023-12-22T00:42:29;9.90;99.90
25346;DHT22;13300;51.032;3.710;2023-12-22T00:44:55;10.00;99.90
25346;DHT22;13300;51.032;3.710;2023-12-22T00:47:21;10.00;99.90
25346;DHT22;13300;51.032;3.710;2023-12-22T00:49:46;10.10;99.90
25346;DHT22;13300;51.032;3.710;2023-12-22T00:52:12;10.10;99.90
25346;DHT22;13300;51.032;3.710;2023-12-22T00:54:38;10.10;99.90
25346;DHT22;13300;51.032;3.710;2023-12-22T00:57:04;10.10;99.90
25346;DHT22;13300;51.032;3.710;2023-12-22T00:59:30;10.20;99.90
25346;DHT22;13300;51.032;3.710;2023-12-22T01:01:55;10.20;99.90
25346;DHT22;13300;51.032;3.710;2023-12-22T01:04:21;10.30;99.90
25346;DHT22;13300;51.032;3.710;2023-12-22T01:06:47;10.30;99.90
25346;DHT22;13300;51.032;3.710;2023-12-22T01:09:13;10.30;99.90
25346;DHT22;13300;51.032;3.710;2023-12-22T01:11:40;10.40;99.90
25346;DHT22;13300;51.032;3.710;2023-12-22T01:14:06;10.30;99.90
25346;DHT22;13300;51.032;3.710;2023-12-22T01:16:32;10.40;99.90
25346;DHT22;13300;51.032;3.710;2023-12-22T01:18:58;10.40;99.90
25346;DHT22;13300;51.032;3.710;2023-12-22T01:21:24;10.40;99.90
25346;DHT22;13300;51.032;3.710;2023-12-22T01:23:49;10.40;99.90
25346;DHT22;13300;51.032;3.710;2023-12-22T01:26:15;10.40;99.90
25346;DHT22;13300;51.032;3.710;2023-12-22T01:28:41;10.40;99.90
25346;DHT22;13300;51.032;3.710;2023-12-22T01:31:06;10.40;99.90
25346;DHT22;13300;51.032;3.710;2023-12-22T01:33:32;10.40;99.90
25346;DHT22;13300;51.032;3.710;2023-12-22T01:35:58;10.40;99.90
25346;DHT22;13300;51.032;3.710;2023-12-22T01:38:23;10.40;99.90
25346;DHT22;13300;51.032;3.710;2023-12-22T01:40:49;10.40;99.90
25346;DHT22;13300;51.032;3.710;2023-12-22T01:43:14;10.40;99.90
25346;DHT22;13300;51.032;3.710;2023-12-22T01:45:42;10.50;99.90
25346;DHT22;13300;51.032;3.710;2023-12-22T01:48:10;10.50;99.90
25346;DHT22;13300;51.032;3.710;2023-12-22T01:50:36;10.50;99.90
25346;DHT22;13300;51.032;3.710;2023-12-22T01:53:02;10.60;99.90
25346;DHT22;13300;51.032;3.710;2023-12-22T01:55:29;10.60;99.90
25346;DHT22;13300;51.032;3.710;2023-12-22T01:57:55;10.60;99.90
25346;DHT22;13300;51.032;3.710;2023-12-22T02:00:21;10.50;99.90
25346;DHT22;13300;51.032;3.710;2023-12-22T02:02:47;10.40;99.90
25346;DHT22;13300;51.032;3.710;2023-12-22T02:05:13;10.40;99.90
25346;DHT22;13300;51.032;3.710;2023-12-22T02:07:41;10.40;99.90
25346;DHT22;13300;51.032;3.710;2023-12-22T02:10:10;10.40;99.90
25346;DHT22;13300;51.032;3.710;2023-12-22T02:12:37;10.40;99.90
25346;DHT22;13300;51.032;3.710;2023-12-22T02:15:03;10.30;99.90
25346;DHT22;13300;51.032;3.710;2023-12-22T02:17:53;10.30;99.90
25346;DHT22;13300;51.032;3.710;2023-12-22T02:20:21;10.30;99.90
25346;DHT22;13300;51.032;3.710;2023-12-22T02:22:53;10.30;99.90
25346;DHT22;13300;51.032;3.710;2023-12-22T02:25:19;10.30;99.90
25346;DHT22;13300;51.032;3.710;2023-12-22T02:27:58;10.30;99.90
25346;DHT22;13300;51.032;3.710;2023-12-22T02:30:54;10.30;99.90
25346;DHT22;13300;51.032;3.710;2023-12-22T02:33:23;10.20;99.90
25346;DHT22;13300;51.032;3.710;2023-12-22T02:35:49;10.20;99.90
25346;DHT22;13300;51.032;3.710;2023-12-22T02:38:16;10.20;99.90
25346;DHT22;13300;51.032;3.710;2023-12-22T02:40:43;10.10;99.90
25346;DHT22;13300;51.032;3.710;2023-12-22T02:43:09;10.00;99.90
25346;DHT22;13300;51.032;3.710;2023-12-22T02:45:35;10.00;99.90
25346;DHT22;13300;51.032;3.710;2023-12-22T02:48:01;10.00;99.90
25346;DHT22;13300;51.032;3.710;2023-12-22T02:50:26;9.90;99.90
25346;DHT22;13300;51.032;3.710;2023-12-22T02:52:52;9.90;99.90
25346;DHT22;13300;51.032;3.710;2023-12-22T02:55:18;9.90;99.90
25346;DHT22;13300;51.032;3.710;2023-12-22T02:57:43;9.80;99.90
25346;DHT22;13300;51.032;3.710;2023-12-22T03:00:09;9.80;99.90
25346;DHT22;13300;51.032;3.710;2023-12-22T03:02:35;9.80;99.90
25346;DHT22;13300;51.032;3.710;2023-12-22T03:05:01;9.70;99.90
25346;DHT22;13300;51.032;3.710;2023-12-22T03:07:26;9.70;99.90
25346;DHT22;13300;51.032;3.710;2023-12-22T03:09:52;9.60;99.90
25346;DHT22;13300;51.032;3.710;2023-12-22T03:12:18;9.60;99.90
25346;DHT22;13300;51.032;3.710;2023-12-22T03:14:43;9.50;99.90
25346;DHT22;13300;51.032;3.710;2023-12-22T03:17:09;9.40;99.90
25346;DHT22;13300;51.032;3.710;2023-12-22T03:19:36;9.30;99.90
25346;DHT22;13300;51.032;3.710;2023-12-22T03:22:02;9.20;99.90
25346;DHT22;13300;51.032;3.710;2023-12-22T03:24:27;9.30;99.90
25346;DHT22;13300;51.032;3.710;2023-12-22T03:26:54;9.30;99.90
25346;DHT22;13300;51.032;3.710;2023-12-22T03:29:20;9.20;99.90
25346;DHT22;13300;51.032;3.710;2023-12-22T03:31:46;9.30;99.90
25346;DHT22;13300;51.032;3.710;2023-12-22T03:34:12;9.30;99.90
25346;DHT22;13300;51.032;3.710;2023-12-22T03:36:38;9.30;99.90
25346;DHT22;13300;51.032;3.710;2023-12-22T03:39:04;9.30;99.90
25346;DHT22;13300;51.032;3.710;2023-12-22T03:41:30;9.30;99.90
25346;DHT22;13300;51.032;3.710;2023-12-22T03:43:56;9.40;99.90
25346;DHT22;13300;51.032;3.710;2023-12-22T03:46:22;9.40;99.90
25346;DHT22;13300;51.032;3.710;2023-12-22T03:48:49;9.40;99.90
25346;DHT22;13300;51.032;3.710;2023-12-22T03:51:15;9.40;99.90
25346;DHT22;13300;51.032;3.710;2023-12-22T03:53:41;9.40;99.90
25346;DHT22;13300;51.032;3.710;2023-12-22T03:56:08;9.40;99.90
25346;DHT22;13300;51.032;3.710;2023-12-22T03:58:34;9.40;99.90
25346;DHT22;13300;51.032;3.710;2023-12-22T04:01:00;9.40;99.90
25346;DHT22;13300;51.032;3.710;2023-12-22T04:03:25;9.40;99.90
25346;DHT22;13300;51.032;3.710;2023-12-22T04:05:51;9.40;99.90
25346;DHT22;13300;51.032;3.710;2023-12-22T04:08:17;9.40;99.90
25346;DHT22;13300;51.032;3.710;2023-12-22T04:10:43;9.40;99.90
25346;DHT22;13300;51.032;3.710;2023-12-22T04:13:10;9.40;99.90
25346;DHT22;13300;51.032;3.710;2023-12-22T04:15:35;9.40;99.90
25346;DHT22;13300;51.032;3.710;2023-12-22T04:18:01;9.40;99.90
25346;DHT22;13300;51.032;3.710;2023-12-22T04:20:27;9.40;99.90
25346;DHT22;13300;51.032;3.710;2023-12-22T04:22:52;9.40;99.90
25346;DHT22;13300;51.032;3.710;2023-12-22T04:25:18;9.40;99.90
25346;DHT22;13300;51.032;3.710;2023-12-22T04:27:44;9.50;99.90
25346;DHT22;13300;51.032;3.710;2023-12-22T04:30:10;9.50;99.90
25346;DHT22;13300;51.032;3.710;2023-12-22T04:32:36;9.50;99.90
25346;DHT22;13300;51.032;3.710;2023-12-22T04:35:02;9.50;99.90
25346;DHT22;13300;51.032;3.710;2023-12-22T04:37:28;9.50;99.90
25346;DHT22;13300;51.032;3.710;2023-12-22T04:39:53;9.50;99.90
25346;DHT22;13300;51.032;3.710;2023-12-22T04:42:19;9.50;99.90
25346;DHT22;13300;51.032;3.710;2023-12-22T04:44:45;9.60;99.90
25346;DHT22;13300;51.032;3.710;2023-12-22T04:47:10;9.60;99.90
25346;DHT22;13300;51.032;3.710;2023-12-22T04:49:38;9.60;99.90
25346;DHT22;13300;51.032;3.710;2023-12-22T04:52:03;9.70;99.90
25346;DHT22;13300;51.032;3.710;2023-12-22T04:54:29;9.80;99.90
25346;DHT22;13300;51.032;3.710;2023-12-22T04:56:55;9.80;99.90
25346;DHT22;13300;51.032;3.710;2023-12-22T04:59:21;9.80;99.90
25346;DHT22;13300;51.032;3.710;2023-12-22T05:01:46;9.90;99.90
25346;DHT22;13300;51.032;3.710;2023-12-22T05:04:12;9.90;99.90
25346;DHT22;13300;51.032;3.710;2023-12-22T05:06:38;9.90;99.90
25346;DHT22;13300;51.032;3.710;2023-12-22T05:09:04;10.00;99.90
25346;DHT22;13300;51.032;3.710;2023-12-22T05:11:29;10.00;99.90
25346;DHT22;13300;51.032;3.710;2023-12-22T05:13:55;10.10;99.90
25346;DHT22;13300;51.032;3.710;2023-12-22T05:16:21;10.10;99.90
25346;DHT22;13300;51.032;3.710;2023-12-22T05:18:46;10.10;99.90
25346;DHT22;13300;51.032;3.710;2023-12-22T05:21:13;10.10;99.90
25346;DHT22;13300;51.032;3.710;2023-12-22T05:23:40;10.20;99.90
25346;DHT22;13300;51.032;3.710;2023-12-22T05:26:05;10.30;99.90
25346;DHT22;13300;51.032;3.710;2023-12-22T05:28:32;10.30;99.90
25346;DHT22;13300;51.032;3.710;2023-12-22T05:30:58;10.40;99.90
25346;DHT22;13300;51.032;3.710;2023-12-22T05:33:24;10.40;99.90
25346;DHT22;13300;51.032;3.710;2023-12-22T05:35:49;10.40;99.90
25346;DHT22;13300;51.032;3.710;2023-12-22T05:38:15;10.40;99.90
25346;DHT22;13300;51.032;3.710;2023-12-22T05:40:41;10.40;99.90
25346;DHT22;13300;51.032;3.710;2023-12-22T05:43:07;10.40;99.90
25346;DHT22;13300;51.032;3.710;2023-12-22T05:45:32;10.40;99.90
25346;DHT22;13300;51.032;3.710;2023-12-22T05:47:58;10.30;99.90
25346;DHT22;13300;51.032;3.710;2023-12-22T05:50:24;10.30;99.90
25346;DHT22;13300;51.032;3.710;2023-12-22T05:52:49;10.20;99.90
25346;DHT22;13300;51.032;3.710;2023-12-22T05:55:15;10.30;99.90
25346;DHT22;13300;51.032;3.710;2023-12-22T05:57:40;10.30;99.90
25346;DHT22;13300;51.032;3.710;2023-12-22T06:00:07;10.30;99.90
25346;DHT22;13300;51.032;3.710;2023-12-22T06:02:35;10.30;99.90
25346;DHT22;13300;51.032;3.710;2023-12-22T06:05:01;10.30;99.90
25346;DHT22;13300;51.032;3.710;2023-12-22T06:07:27;10.30;99.90
25346;DHT22;13300;51.032;3.710;2023-12-22T06:09:52;10.30;99.90
25346;DHT22;13300;51.032;3.710;2023-12-22T06:12:18;10.20;99.90
25346;DHT22;13300;51.032;3.710;2023-12-22T06:14:44;10.20;99.90
25346;DHT22;13300;51.032;3.710;2023-12-22T06:17:09;10.10;99.90
25346;DHT22;13300;51.032;3.710;2023-12-22T06:19:36;10.10;99.90
25346;DHT22;13300;51.032;3.710;2023-12-22T06:22:02;10.00;99.90
25346;DHT22;13300;51.032;3.710;2023-12-22T06:24:27;10.00;99.90
25346;DHT22;13300;51.032;3.710;2023-12-22T06:26:53;10.00;99.90
25346;DHT22;13300;51.032;3.710;2023-12-22T06:29:19;10.00;99.90
25346;DHT22;13300;51.032;3.710;2023-12-22T06:31:45;9.90;99.90
25346;DHT22;13300;51.032;3.710;2023-12-22T06:34:11;10.00;99.90
25346;DHT22;13300;51.032;3.710;2023-12-22T06:36:37;10.00;99.90
25346;DHT22;13300;51.032;3.710;2023-12-22T06:39:02;10.00;99.90
25346;DHT22;13300;51.032;3.710;2023-12-22T06:41:30;10.00;99.90
25346;DHT22;13300;51.032;3.710;2023-12-22T06:43:56;10.00;99.90
25346;DHT22;13300;51.032;3.710;2023-12-22T06:46:23;10.00;99.90
25346;DHT22;13300;51.032;3.710;2023-12-22T06:48:53;10.10;99.90
25346;DHT22;13300;51.032;3.710;2023-12-22T06:51:27;10.10;99.90
25346;DHT22;13300;51.032;3.710;2023-12-22T06:53:53;10.10;99.90
25346;DHT22;13300;51.032;3.710;2023-12-22T06:56:22;10.20;99.90
25346;DHT22;13300;51.032;3.710;2023-12-22T06:58:50;10.30;99.90
25346;DHT22;13300;51.032;3.710;2023-12-22T07:01:25;10.40;99.90
25346;DHT22;13300;51.032;3.710;2023-12-22T07:03:51;10.30;99.90
25346;DHT22;13300;51.032;3.710;2023-12-22T07:06:19;10.30;99.90
25346;DHT22;13300;51.032;3.710;2023-12-22T07:11:37;10.40;99.90
25346;DHT22;13300;51.032;3.710;2023-12-22T07:14:03;10.40;99.90
25346;DHT22;13300;51.032;3.710;2023-12-22T07:16:28;10.40;99.90
25346;DHT22;13300;51.032;3.710;2023-12-22T07:18:54;10.40;99.90
25346;DHT22;13300;51.032;3.710;2023-12-22T07:21:19;10.40;99.90
25346;DHT22;13300;51.032;3.710;2023-12-22T07:23:46;10.40;99.90
25346;DHT22;13300;51.032;3.710;2023-12-22T07:26:11;10.40;99.90
25346;DHT22;13300;51.032;3.710;2023-12-22T07:28:37;10.40;99.90
25346;DHT22;13300;51.032;3.710;2023-12-22T07:31:03;10.40;99.90
25346;DHT22;13300;51.032;3.710;2023-12-22T07:33:29;10.50;99.90
25346;DHT22;13300;51.032;3.710;2023-12-22T07:35:55;10.50;99.90
25346;DHT22;13300;51.032;3.710;2023-12-22T07:38:20;10.50;99.90
25346;DHT22;13300;51.032;3.710;2023-12-22T07:40:46;10.50;99.90
25346;DHT22;13300;51.032;3.710;2023-12-22T07:43:12;10.50;99.90
25346;DHT22;13300;51.032;3.710;2023-12-22T07:45:38;10.50;99.90
25346;DHT22;13300;51.032;3.710;2023-12-22T07:48:04;10.50;99.90
25346;DHT22;13300;51.032;3.710;2023-12-22T07:50:30;10.50;99.90
25346;DHT22;13300;51.032;3.710;2023-12-22T07:52:56;10.50;99.90
25346;DHT22;13300;51.032;3.710;2023-12-22T07:55:22;10.50;99.90
25346;DHT22;13300;51.032;3.710;2023-12-22T07:57:48;10.50;99.90
25346;DHT22;13300;51.032;3.710;2023-12-22T08:00:14;10.50;99.90
25346;DHT22;13300;51.032;3.710;2023-12-22T08:02:40;10.50;99.90
25346;DHT22;13300;51.032;3.710;2023-12-22T08:05:06;10.50;99.90
25346;DHT22;13300;51.032;3.710;2023-12-22T08:07:32;10.50;99.90
25346;DHT22;13300;51.032;3.710;2023-12-22T08:09:58;10.50;99.90
25346;DHT22;13300;51.032;3.710;2023-12-22T08:12:24;10.50;99.90
25346;DHT22;13300;51.032;3.710;2023-12-22T08:14:50;10.50;99.90
25346;DHT22;13300;51.032;3.710;2023-12-22T08:17:22;10.50;99.90
25346;DHT22;13300;51.032;3.710;2023-12-22T08:19:48;10.60;99.90
25346;DHT22;13300;51.032;3.710;2023-12-22T08:22:13;10.60;99.90
25346;DHT22;13300;51.032;3.710;2023-12-22T08:24:39;10.70;99.90
25346;DHT22;13300;51.032;3.710;2023-12-22T08:27:05;10.60;99.90
25346;DHT22;13300;51.032;3.710;2023-12-22T08:29:34;10.70;99.90
25346;DHT22;13300;51.032;3.710;2023-12-22T08:32:01;10.60;99.90
25346;DHT22;13300;51.032;3.710;2023-12-22T08:34:27;10.70;99.90
25346;DHT22;13300;51.032;3.710;2023-12-22T08:36:56;10.80;99.90
25346;DHT22;13300;51.032;3.710;2023-12-22T08:39:22;10.90;99.90
25346;DHT22;13300;51.032;3.710;2023-12-22T08:41:55;10.80;99.90
25346;DHT22;13300;51.032;3.710;2023-12-22T08:44:21;10.90;99.90
25346;DHT22;13300;51.032;3.710;2023-12-22T08:47:03;10.90;99.90
25346;DHT22;13300;51.032;3.710;2023-12-22T08:49:29;10.90;99.90
25346;DHT22;13300;51.032;3.710;2023-12-22T08:51:56;10.90;99.90
25346;DHT22;13300;51.032;3.710;2023-12-22T08:54:21;11.00;99.90
25346;DHT22;13300;51.032;3.710;2023-12-22T08:56:47;11.00;99.90
25346;DHT22;13300;51.032;3.710;2023-12-22T08:59:13;11.00;99.90
25346;DHT22;13300;51.032;3.710;2023-12-22T09:01:38;11.00;99.90
25346;DHT22;13300;51.032;3.710;2023-12-22T09:04:06;11.00;99.90
25346;DHT22;13300;51.032;3.710;2023-12-22T09:06:32;11.00;99.90
25346;DHT22;13300;51.032;3.710;2023-12-22T09:08:57;11.10;99.90
25346;DHT22;13300;51.032;3.710;2023-12-22T09:11:26;11.10;99.90
25346;DHT22;13300;51.032;3.710;2023-12-22T09:13:59;11.20;99.90
25346;DHT22;13300;51.032;3.710;2023-12-22T09:16:25;11.30;99.90
25346;DHT22;13300;51.032;3.710;2023-12-22T09:18:54;11.30;99.90
25346;DHT22;13300;51.032;3.710;2023-12-22T09:21:20;11.40;99.90
25346;DHT22;13300;51.032;3.710;2023-12-22T09:23:52;11.40;99.90
25346;DHT22;13300;51.032;3.710;2023-12-22T09:26:18;11.40;99.90
25346;DHT22;13300;51.032;3.710;2023-12-22T09:28:54;11.50;99.90
25346;DHT22;13300;51.032;3.710;2023-12-22T09:31:23;11.50;99.90
25346;DHT22;13300;51.032;3.710;2023-12-22T09:33:50;11.50;99.90
25346;DHT22;13300;51.032;3.710;2023-12-22T09:36:18;11.50;99.90
25346;DHT22;13300;51.032;3.710;2023-12-22T09:38:47;11.60;99.90
25346;DHT22;13300;51.032;3.710;2023-12-22T09:41:18;11.60;99.90
25346;DHT22;13300;51.032;3.710;2023-12-22T09:43:49;11.60;99.90
25346;DHT22;13300;51.032;3.710;2023-12-22T09:46:15;11.70;99.90
25346;DHT22;13300;51.032;3.710;2023-12-22T09:48:42;11.70;99.90
25346;DHT22;13300;51.032;3.710;2023-12-22T09:51:19;11.70;99.90
25346;DHT22;13300;51.032;3.710;2023-12-22T09:53:45;11.70;99.90
25346;DHT22;13300;51.032;3.710;2023-12-22T09:56:14;11.70;99.90
25346;DHT22;13300;51.032;3.710;2023-12-22T09:58:41;11.70;99.90
25346;DHT22;13300;51.032;3.710;2023-12-22T10:01:07;11.70;99.90
25346;DHT22;13300;51.032;3.710;2023-12-22T10:03:37;11.70;99.90
25346;DHT22;13300;51.032;3.710;2023-12-22T10:06:06;11.70;99.90
25346;DHT22;13300;51.032;3.710;2023-12-22T10:08:32;11.80;99.90
25346;DHT22;13300;51.032;3.710;2023-12-22T10:11:06;11.80;99.90
25346;DHT22;13300;51.032;3.710;2023-12-22T10:13:36;11.80;99.90
25346;DHT22;13300;51.032;3.710;2023-12-22T10:16:08;11.80;99.90
25346;DHT22;13300;51.032;3.710;2023-12-22T10:18:34;11.80;99.90
25346;DHT22;13300;51.032;3.710;2023-12-22T10:20:59;11.80;99.90
25346;DHT22;13300;51.032;3.710;2023-12-22T10:23:26;11.80;99.90
25346;DHT22;13300;51.032;3.710;2023-12-22T10:25:52;11.70;99.90
25346;DHT22;13300;51.032;3.710;2023-12-22T10:28:20;11.80;99.90
25346;DHT22;13300;51.032;3.710;2023-12-22T10:30:51;11.80;99.90
25346;DHT22;13300;51.032;3.710;2023-12-22T10:33:18;11.80;99.90
25346;DHT22;13300;51.032;3.710;2023-12-22T10:35:44;11.70;99.90
25346;DHT22;13300;51.032;3.710;2023-12-22T10:38:10;11.70;99.90
25346;DHT22;13300;51.032;3.710;2023-12-22T10:40:48;11.60;99.90
25346;DHT22;13300;51.032;3.710;2023-12-22T10:43:42;11.60;99.90
25346;DHT22;13300;51.032;3.710;2023-12-22T10:46:26;11.70;99.90
25346;DHT22;13300;51.032;3.710;2023-12-22T10:49:10;11.60;99.90
25346;DHT22;13300;51.032;3.710;2023-12-22T10:51:39;11.60;99.90
25346;DHT22;13300;51.032;3.710;2023-12-22T10:54:05;11.70;99.90
25346;DHT22;13300;51.032;3.710;2023-12-22T10:56:34;11.70;99.90
25346;DHT22;13300;51.032;3.710;2023-12-22T10:59:00;11.70;99.90
25346;DHT22;13300;51.032;3.710;2023-12-22T11:01:29;11.80;99.90
25346;DHT22;13300;51.032;3.710;2023-12-22T11:03:58;11.80;99.90
25346;DHT22;13300;51.032;3.710;2023-12-22T11:06:41;11.80;99.90
25346;DHT22;13300;51.032;3.710;2023-12-22T11:09:09;11.90;99.90
25346;DHT22;13300;51.032;3.710;2023-12-22T11:11:39;11.90;99.90
25346;DHT22;13300;51.032;3.710;2023-12-22T11:14:06;12.00;99.90
25346;DHT22;13300;51.032;3.710;2023-12-22T11:16:33;12.00;99.90
25346;DHT22;13300;51.032;3.710;2023-12-22T11:19:01;12.00;99.90
25346;DHT22;13300;51.032;3.710;2023-12-22T11:21:27;12.00;99.90
25346;DHT22;13300;51.032;3.710;2023-12-22T11:23:54;12.00;99.90
25346;DHT22;13300;51.032;3.710;2023-12-22T11:26:22;12.00;99.90
25346;DHT22;13300;51.032;3.710;2023-12-22T11:28:49;12.10;99.90
25346;DHT22;13300;51.032;3.710;2023-12-22T11:31:16;12.20;99.90
25346;DHT22;13300;51.032;3.710;2023-12-22T11:33:49;12.20;99.90
25346;DHT22;13300;51.032;3.710;2023-12-22T11:36:16;12.10;99.90
25346;DHT22;13300;51.032;3.710;2023-12-22T11:38:44;12.10;99.90
25346;DHT22;13300;51.032;3.710;2023-12-22T11:41:18;12.00;99.90
25346;DHT22;13300;51.032;3.710;2023-12-22T11:43:45;12.10;99.90
25346;DHT22;13300;51.032;3.710;2023-12-22T11:46:11;12.10;99.90
25346;DHT22;13300;51.032;3.710;2023-12-22T11:48:37;12.10;99.90
25346;DHT22;13300;51.032;3.710;2023-12-22T11:51:15;12.10;99.90
25346;DHT22;13300;51.032;3.710;2023-12-22T11:53:41;12.10;99.90
25346;DHT22;13300;51.032;3.710;2023-12-22T11:56:08;12.10;99.90
25346;DHT22;13300;51.032;3.710;2023-12-22T11:58:43;12.20;99.90
25346;DHT22;13300;51.032;3.710;2023-12-22T12:01:17;12.20;99.90
25346;DHT22;13300;51.032;3.710;2023-12-22T12:03:55;12.20;99.90
25346;DHT22;13300;51.032;3.710;2023-12-22T12:08:59;12.20;99.90
25346;DHT22;13300;51.032;3.710;2023-12-22T12:14:14;12.20;99.90
25346;DHT22;13300;51.032;3.710;2023-12-22T12:16:42;12.10;99.90
25346;DHT22;13300;51.032;3.710;2023-12-22T12:19:11;12.10;99.90
25346;DHT22;13300;51.032;3.710;2023-12-22T12:21:36;12.10;99.90
25346;DHT22;13300;51.032;3.710;2023-12-22T12:24:03;12.10;99.90
25346;DHT22;13300;51.032;3.710;2023-12-22T12:26:32;12.10;99.90
25346;DHT22;13300;51.032;3.710;2023-12-22T12:28:59;12.10;99.90
25346;DHT22;13300;51.032;3.710;2023-12-22T12:31:35;12.00;99.90
25346;DHT22;13300;51.032;3.710;2023-12-22T12:34:05;11.90;99.90
25346;DHT22;13300;51.032;3.710;2023-12-22T12:36:32;12.00;99.90
25346;DHT22;13300;51.032;3.710;2023-12-22T12:39:07;11.90;99.90
25346;DHT22;13300;51.032;3.710;2023-12-22T12:41:40;12.00;99.90
25346;DHT22;13300;51.032;3.710;2023-12-22T12:44:07;12.00;99.90
25346;DHT22;13300;51.032;3.710;2023-12-22T12:46:40;12.10;99.90
25346;DHT22;13300;51.032;3.710;2023-12-22T12:49:10;12.10;99.90
25346;DHT22;13300;51.032;3.710;2023-12-22T12:51:44;12.10;99.90
25346;DHT22;13300;51.032;3.710;2023-12-22T12:54:10;12.10;99.90
25346;DHT22;13300;51.032;3.710;2023-12-22T12:56:43;12.10;99.90
25346;DHT22;13300;51.032;3.710;2023-12-22T12:59:10;12.20;99.90
25346;DHT22;13300;51.032;3.710;2023-12-22T13:01:54;12.20;99.90
25346;DHT22;13300;51.032;3.710;2023-12-22T13:04:20;12.10;99.90
25346;DHT22;13300;51.032;3.710;2023-12-22T13:06:46;12.10;99.90
25346;DHT22;13300;51.032;3.710;2023-12-22T13:09:12;12.10;99.90
25346;DHT22;13300;51.032;3.710;2023-12-22T13:11:40;12.10;99.90
25346;DHT22;13300;51.032;3.710;2023-12-22T13:14:08;12.20;99.90
25346;DHT22;13300;51.032;3.710;2023-12-22T13:16:34;12.20;99.90
25346;DHT22;13300;51.032;3.710;2023-12-22T13:19:00;12.20;99.90
25346;DHT22;13300;51.032;3.710;2023-12-22T13:21:29;12.20;99.90
25346;DHT22;13300;51.032;3.710;2023-12-22T13:24:30;12.20;99.90
25346;DHT22;13300;51.032;3.710;2023-12-22T13:27:00;12.20;99.90
25346;DHT22;13300;51.032;3.710;2023-12-22T13:29:29;12.20;99.90
25346;DHT22;13300;51.032;3.710;2023-12-22T13:31:55;12.20;99.90
25346;DHT22;13300;51.032;3.710;2023-12-22T13:34:22;12.20;99.90
25346;DHT22;13300;51.032;3.710;2023-12-22T13:36:48;12.20;99.90
25346;DHT22;13300;51.032;3.710;2023-12-22T13:39:14;12.20;99.90
25346;DHT22;13300;51.032;3.710;2023-12-22T13:41:41;12.10;99.90
25346;DHT22;13300;51.032;3.710;2023-12-22T13:44:11;12.00;99.90
25346;DHT22;13300;51.032;3.710;2023-12-22T13:46:37;12.00;99.90
25346;DHT22;13300;51.032;3.710;2023-12-22T13:49:10;12.00;99.90
25346;DHT22;13300;51.032;3.710;2023-12-22T13:51:45;12.00;99.90
25346;DHT22;13300;51.032;3.710;2023-12-22T13:54:13;12.00;99.90
25346;DHT22;13300;51.032;3.710;2023-12-22T13:56:39;12.00;99.90
25346;DHT22;13300;51.032;3.710;2023-12-22T13:59:11;12.10;99.90
25346;DHT22;13300;51.032;3.710;2023-12-22T14:01:37;12.10;99.90
25346;DHT22;13300;51.032;3.710;2023-12-22T14:04:03;12.10;99.90
25346;DHT22;13300;51.032;3.710;2023-12-22T14:06:29;12.10;99.90
25346;DHT22;13300;51.032;3.710;2023-12-22T14:08:55;12.10;99.90
25346;DHT22;13300;51.032;3.710;2023-12-22T14:11:21;12.10;99.90
25346;DHT22;13300;51.032;3.710;2023-12-22T14:13:47;12.10;99.90
25346;DHT22;13300;51.032;3.710;2023-12-22T14:16:13;12.10;99.90
25346;DHT22;13300;51.032;3.710;2023-12-22T14:18:41;12.10;99.90
25346;DHT22;13300;51.032;3.710;2023-12-22T14:21:06;12.10;99.90
25346;DHT22;13300;51.032;3.710;2023-12-22T14:23:32;12.10;99.90
25346;DHT22;13300;51.032;3.710;2023-12-22T14:25:58;12.10;99.90
25346;DHT22;13300;51.032;3.710;2023-12-22T14:28:23;12.10;99.90
25346;DHT22;13300;51.032;3.710;2023-12-22T14:30:49;12.10;99.90
25346;DHT22;13300;51.032;3.710;2023-12-22T14:33:15;12.00;99.90
25346;DHT22;13300;51.032;3.710;2023-12-22T14:35:41;12.10;99.90
25346;DHT22;13300;51.032;3.710;2023-12-22T14:38:06;12.10;99.90
25346;DHT22;13300;51.032;3.710;2023-12-22T14:40:32;12.00;99.90
25346;DHT22;13300;51.032;3.710;2023-12-22T14:42:58;12.10;99.90
25346;DHT22;13300;51.032;3.710;2023-12-22T14:45:24;12.10;99.90
25346;DHT22;13300;51.032;3.710;2023-12-22T14:47:50;12.10;99.90
25346;DHT22;13300;51.032;3.710;2023-12-22T14:50:17;12.10;99.90
25346;DHT22;13300;51.032;3.710;2023-12-22T14:52:43;12.10;99.90
25346;DHT22;13300;51.032;3.710;2023-12-22T14:55:08;12.10;99.90
25346;DHT22;13300;51.032;3.710;2023-12-22T14:57:34;12.10;99.90
25346;DHT22;13300;51.032;3.710;2023-12-22T15:00:00;12.10;99.90
25346;DHT22;13300;51.032;3.710;2023-12-22T15:02:26;12.10;99.90
25346;DHT22;13300;51.032;3.710;2023-12-22T15:04:51;12.10;99.90
25346;DHT22;13300;51.032;3.710;2023-12-22T15:07:18;12.10;99.90
25346;DHT22;13300;51.032;3.710;2023-12-22T15:09:45;12.10;99.90
25346;DHT22;13300;51.032;3.710;2023-12-22T15:12:14;12.10;99.90
25346;DHT22;13300;51.032;3.710;2023-12-22T15:14:49;12.10;99.90
25346;DHT22;13300;51.032;3.710;2023-12-22T15:17:15;12.10;99.90
25346;DHT22;13300;51.032;3.710;2023-12-22T15:19:43;12.10;99.90
25346;DHT22;13300;51.032;3.710;2023-12-22T15:22:10;12.10;99.90
25346;DHT22;13300;51.032;3.710;2023-12-22T15:24:42;12.10;99.90
25346;DHT22;13300;51.032;3.710;2023-12-22T15:27:11;12.10;99.90
25346;DHT22;13300;51.032;3.710;2023-12-22T15:29:37;12.10;99.90
25346;DHT22;13300;51.032;3.710;2023-12-22T15:32:03;12.10;99.90
25346;DHT22;13300;51.032;3.710;2023-12-22T15:34:29;12.10;99.90
25346;DHT22;13300;51.032;3.710;2023-12-22T15:36:54;12.10;99.90
25346;DHT22;13300;51.032;3.710;2023-12-22T15:39:20;12.10;99.90
25346;DHT22;13300;51.032;3.710;2023-12-22T15:41:48;12.10;99.90
25346;DHT22;13300;51.032;3.710;2023-12-22T15:44:14;12.10;99.90